Cayman Brac, Cayman Islands

2:22 PM EST on September 01, 2014 (GMT -0500)
Gerrard-Smith International | Change Station
CLOSE
Current Station
Airport
Location: Cayman Brac,
Elevation: 7 ft
Nearby Weather Stations

Elev 7 ft 19.69 °N, 79.88 °W | Updated 22 minutes ago

Partly Cloudy
Partly Cloudy
90 °F
Feels Like 105 °F
N
10
Wind Variable Wind from ESE

Today
High -- | Low -- °F
--% Chance of Precip.
Yesterday
High -- | Low -- °F
Precip. -- in
6:04 AM 6:34 PM
Waxing Crescent, 43% visible
Pressure 29.98 in
Visibility 6.2 miles
Clouds Few 1600 ft
Heat Index 105 °F
Dew Point 79 °F
Humidity 70%
Rainfall 0.00 in
Snow Depth Not available.
UV 14 out of 12
Pollen Not available.
Air Quality Not available.
Flu Activity Not available.
METAR MWCB 011900Z 11009KT 9999 FEW016CB 32/26 Q1015

More Conditions Fewer Conditions

Pressure 29.98 in
Visibility 6.2 miles
Clouds Few 1600 ft
Heat Index 105 °F
Dew Point 79 °F
Humidity 70%
Rainfall 0.00 in
Snow Depth Not available.
UV 14 out of 12
Pollen Not available.
Air Quality Not available.
Flu Activity Not available.
METAR MWCB 011900Z 11009KT 9999 FEW016CB 32/26 Q1015

More Conditions Fewer Conditions

10-Day Weather Forecast

Almanac

Astronomy

Sep. 01, 2014 Rise Set
Actual Time 6:04 AM EST 6:34 PM EST
Civil Twilight 5:41 AM EST 6:56 PM EST
Nautical Twilight 5:15 AM EST 7:22 PM EST
Astronomical Twilight 4:49 AM EST 7:49 PM EST
Moon 11:55 AM EST 11:28 PM EST
Length of Visible Light 13h 14m
Length of Day
12h 30m
Tomorrow will be 1m 4s shorter.
Waxing Crescent, 43% of the Moon is Illuminated
Today
Waxing Crescent
Sep 2
First Quarter
Sep 8
Full
Sep 15
Last Quarter
Sep 24
New

Today's Extremes

Country Highs Country Lows

Community

WunderPhotos

Upload Photos

1,749,378 photos uploaded!

WunderBlogs® & News

Nearby

Snow Depth

Not available.

Earthquake Activity

City Distance Mag. Time & Date
No recent earthquake activity has been reported nearby.
Minimum magnitude displayed is 2.5.

Coastal Water Temperatures

Place Temperature
No Stations Reporting

Nearby Weather Stations